Current Weather

Yakutsk

Yakutsk, Russia (UEEE)

Report from: Thursday, April 25, 2024 3:00 AM JST
Current time: Thursday, April 25, 2024 3:17 AM JST

Nearby weather – Weather history – Daily summaries
Weather forecast

Temperature-1.0°C (30.2°F)
Wind chill-6.7°C (19.9°F)
Dew point-6.0°C (21.2°F)
Winds 11.7 kts (6 m/s, 13.4 mph) West-Northwest (290°)
Visibility6.2 mi. (10 km)
Clouds Scattered clouds with cumulonimbus 2,200 ft. (671 m)
Altimeter29.47 in.Hg (998 mB)
Precip. events QF 2:20 PM
Relative humidity69 %
Density altitude-1,372 ft. (-418 m)
Remarks No significant changes expected in the next two hours
Flight conditions Visual Meteorological Conditions
Raw dataUEEE 241800Z 29006MPS 9999 SCT022CB M01/M06 Q0998 R23/15//60 NOSIG RMK QFE740
An error has occurred. This application may no longer respond until reloaded. Reload 🗙